createdAt,value
2023-02-27T00:00:42.423Z,90.70
2023-02-27T00:03:10.413Z,90.50
2023-02-27T00:05:42.205Z,90.50
2023-02-27T00:08:10.850Z,90.50
2023-02-27T00:10:41.908Z,90.70
2023-02-27T00:13:12.657Z,91.00
2023-02-27T00:15:40.991Z,91.00
2023-02-27T00:18:09.306Z,91.00
2023-02-27T00:20:38.600Z,90.80
2023-02-27T00:23:09.852Z,91.20
2023-02-27T00:25:38.845Z,91.40
2023-02-27T00:28:07.586Z,91.60
2023-02-27T00:30:36.553Z,91.50
2023-02-27T00:33:06.095Z,91.40
2023-02-27T00:35:34.574Z,91.40
2023-02-27T00:38:03.230Z,91.60
2023-02-27T00:40:38.252Z,91.80
2023-02-27T00:43:06.471Z,91.60
2023-02-27T00:45:36.124Z,91.80
2023-02-27T00:48:04.410Z,92.00
2023-02-27T00:50:32.877Z,92.20
2023-02-27T00:53:01.794Z,92.20
2023-02-27T00:55:29.813Z,92.40
2023-02-27T00:58:00.951Z,92.50
2023-02-27T01:00:30.234Z,92.70
2023-02-27T01:02:58.585Z,92.70
2023-02-27T01:05:26.894Z,92.50
2023-02-27T01:07:55.660Z,92.90
2023-02-27T01:10:24.182Z,92.90
2023-02-27T01:12:52.352Z,93.20
2023-02-27T01:15:21.769Z,93.40
2023-02-27T01:17:50.709Z,93.30
2023-02-27T01:20:21.177Z,93.50
2023-02-27T01:22:49.590Z,93.90
2023-02-27T01:25:17.708Z,93.80
2023-02-27T01:27:46.157Z,93.80
2023-02-27T01:30:16.133Z,94.20
2023-02-27T01:32:47.291Z,94.60
2023-02-27T01:35:15.564Z,94.80
2023-02-27T01:37:43.539Z,95.10
2023-02-27T01:40:14.394Z,95.20
2023-02-27T01:42:43.864Z,95.40
2023-02-27T01:45:34.354Z,95.70
2023-02-27T01:48:10.837Z,95.90
2023-02-27T01:50:43.199Z,95.90
2023-02-27T01:53:12.440Z,96.10
2023-02-27T01:55:41.155Z,96.00
2023-02-27T01:58:13.091Z,96.50
2023-02-27T02:00:41.576Z,96.60
2023-02-27T02:03:18.913Z,96.60
2023-02-27T02:05:47.947Z,96.90
2023-02-27T02:08:19.434Z,97.00
2023-02-27T02:10:51.666Z,97.20
2023-02-27T02:13:22.010Z,97.10
2023-02-27T02:16:08.014Z,97.30
2023-02-27T02:18:53.167Z,97.60
2023-02-27T02:21:51.390Z,97.70
2023-02-27T02:25:07.099Z,97.70
2023-02-27T02:27:47.209Z,97.60
2023-02-27T02:31:00.792Z,97.50
2023-02-27T02:34:06.548Z,97.40
2023-02-27T02:37:19.901Z,97.60
2023-02-27T02:40:06.238Z,97.60
2023-02-27T02:42:43.564Z,97.40
2023-02-27T02:45:23.532Z,97.30
2023-02-27T02:48:03.387Z,97.20
2023-02-27T02:50:40.749Z,97.00
2023-02-27T02:53:14.410Z,97.00
2023-02-27T02:55:49.001Z,96.80
2023-02-27T02:58:26.258Z,97.00
2023-02-27T03:01:01.074Z,96.90
2023-02-27T03:03:33.047Z,97.20
2023-02-27T03:06:09.828Z,97.60
2023-02-27T03:08:43.767Z,97.80
2023-02-27T03:11:13.394Z,98.20
2023-02-27T03:13:47.691Z,98.40
2023-02-27T03:16:21.324Z,98.30
2023-02-27T03:18:57.874Z,98.40
2023-02-27T03:21:31.776Z,98.50
2023-02-27T03:24:05.786Z,98.40
2023-02-27T03:26:41.330Z,98.60
2023-02-27T03:29:12.482Z,98.70
2023-02-27T03:31:46.387Z,98.70
2023-02-27T03:34:22.539Z,98.30
2023-02-27T03:37:01.889Z,98.50
2023-02-27T03:39:43.668Z,98.60
2023-02-27T03:42:20.578Z,98.90
2023-02-27T03:45:17.589Z,99.00
2023-02-27T03:47:47.354Z,99.20
2023-02-27T03:50:16.474Z,99.00
2023-02-27T03:52:45.514Z,99.10
2023-02-27T03:55:17.154Z,99.10
2023-02-27T03:57:51.756Z,99.30
2023-02-27T04:00:21.965Z,99.20
2023-02-27T04:02:52.491Z,99.10
2023-02-27T04:05:25.300Z,99.00
2023-02-27T04:08:14.842Z,99.20
2023-02-27T04:11:02.953Z,99.50
2023-02-27T04:13:45.801Z,99.30
2023-02-27T04:16:44.465Z,99.20
2023-02-27T04:19:27.684Z,99.10
2023-02-27T04:22:09.267Z,99.70
2023-02-27T04:24:45.990Z,99.80
2023-02-27T04:27:24.631Z,99.60
2023-02-27T04:30:00.753Z,99.50
2023-02-27T04:32:34.796Z,99.50
2023-02-27T04:35:08.057Z,99.40
2023-02-27T04:37:44.488Z,99.40
2023-02-27T04:40:16.216Z,99.50
2023-02-27T04:42:48.788Z,99.80
2023-02-27T04:45:21.421Z,99.90
2023-02-27T04:47:55.850Z,99.80
2023-02-27T04:50:27.984Z,99.80
2023-02-27T04:53:23.403Z,99.60
2023-02-27T04:55:55.614Z,99.50
2023-02-27T04:58:29.613Z,99.80
2023-02-27T05:01:04.903Z,99.90
2023-02-27T05:03:37.929Z,99.90
2023-02-27T05:06:07.084Z,99.90
2023-02-27T05:08:40.688Z,99.90
2023-02-27T05:11:14.996Z,99.90
2023-02-27T05:13:48.462Z,99.90
2023-02-27T05:16:23.788Z,99.90
2023-02-27T05:18:52.500Z,99.90
2023-02-27T05:21:27.101Z,99.90
2023-02-27T05:24:07.870Z,99.90
2023-02-27T05:26:47.964Z,99.90
2023-02-27T05:29:25.383Z,99.90
2023-02-27T05:31:57.870Z,99.90
2023-02-27T05:34:31.236Z,99.90
2023-02-27T05:37:06.900Z,99.90
2023-02-27T05:39:38.327Z,99.90
2023-02-27T05:42:11.321Z,99.90
2023-02-27T05:44:45.012Z,99.90
2023-02-27T05:47:19.828Z,99.90
2023-02-27T05:49:53.233Z,99.90
2023-02-27T05:52:25.286Z,99.90
2023-02-27T05:54:58.373Z,99.90
2023-02-27T05:57:36.698Z,99.90
2023-02-27T06:00:11.841Z,99.90
2023-02-27T06:02:42.892Z,99.90
2023-02-27T06:05:16.195Z,99.90
2023-02-27T06:07:46.264Z,99.90
2023-02-27T06:10:16.926Z,99.90
2023-02-27T06:12:45.070Z,99.90
2023-02-27T06:15:16.319Z,99.90
2023-02-27T06:17:46.469Z,99.90
2023-02-27T06:20:16.279Z,99.90
2023-02-27T06:22:44.507Z,99.90
2023-02-27T06:25:12.594Z,99.90
2023-02-27T06:27:43.481Z,99.90
2023-02-27T06:30:12.702Z,99.90
2023-02-27T06:32:41.478Z,99.90
2023-02-27T06:35:11.474Z,99.90
2023-02-27T06:37:40.033Z,99.90
2023-02-27T06:40:11.703Z,99.90
2023-02-27T06:42:40.988Z,99.90
2023-02-27T06:45:12.499Z,99.90
2023-02-27T06:47:43.896Z,99.90
2023-02-27T06:50:17.308Z,99.90
2023-02-27T06:52:45.398Z,99.90
2023-02-27T06:55:19.787Z,99.90
2023-02-27T06:57:48.307Z,99.90
2023-02-27T07:00:18.011Z,99.90
2023-02-27T07:02:46.248Z,99.90
2023-02-27T07:05:15.759Z,99.90
2023-02-27T07:07:43.935Z,99.90
2023-02-27T07:10:15.109Z,99.90
2023-02-27T07:12:43.948Z,99.90
2023-02-27T07:15:15.546Z,99.90
2023-02-27T07:17:45.322Z,99.90
2023-02-27T07:20:17.474Z,99.90
2023-02-27T07:22:47.422Z,99.90
2023-02-27T07:25:15.634Z,99.90
2023-02-27T07:27:45.986Z,99.90
2023-02-27T07:30:14.864Z,99.90
2023-02-27T07:32:43.023Z,99.90
2023-02-27T07:35:12.072Z,99.90
2023-02-27T07:37:41.449Z,99.90
2023-02-27T07:40:12.105Z,99.90
2023-02-27T07:42:40.305Z,99.90
2023-02-27T07:45:09.780Z,99.90
2023-02-27T07:47:38.326Z,99.90
2023-02-27T07:50:13.854Z,99.90
2023-02-27T07:52:44.621Z,99.90
2023-02-27T07:55:14.348Z,99.90
2023-02-27T07:57:43.010Z,99.90
2023-02-27T08:00:13.713Z,99.90
2023-02-27T08:02:43.186Z,99.90
2023-02-27T08:05:11.550Z,99.90
2023-02-27T08:07:42.731Z,99.90
2023-02-27T08:10:13.679Z,99.90
2023-02-27T08:12:41.700Z,99.90
2023-02-27T08:15:10.863Z,99.90
2023-02-27T08:17:38.852Z,99.90
2023-02-27T08:20:11.799Z,99.90
2023-02-27T08:22:40.221Z,99.90
2023-02-27T08:25:11.628Z,99.90
2023-02-27T08:28:02.484Z,99.90
2023-02-27T08:30:30.718Z,99.90
2023-02-27T08:33:01.716Z,99.90
2023-02-27T08:35:31.372Z,99.90
2023-02-27T08:38:00.122Z,99.90
2023-02-27T08:40:30.323Z,99.90
2023-02-27T08:42:58.363Z,99.90
2023-02-27T08:45:26.898Z,99.90
2023-02-27T08:47:55.269Z,99.90
2023-02-27T08:50:23.319Z,99.90
2023-02-27T08:52:51.553Z,99.90
2023-02-27T08:55:24.436Z,99.90
2023-02-27T08:57:54.648Z,99.90
2023-02-27T09:00:25.436Z,99.90
2023-02-27T09:02:55.208Z,99.90
2023-02-27T09:05:24.222Z,99.90
2023-02-27T09:07:52.230Z,99.90
2023-02-27T09:10:20.758Z,99.90
2023-02-27T09:12:49.833Z,99.90
2023-02-27T09:15:19.428Z,99.90
2023-02-27T09:17:47.829Z,99.90
2023-02-27T09:20:38.359Z,99.90
2023-02-27T09:23:06.418Z,99.90
2023-02-27T09:25:34.468Z,99.90
2023-02-27T09:28:02.589Z,99.90
2023-02-27T09:30:33.620Z,99.90
2023-02-27T09:33:01.987Z,99.90
2023-02-27T09:35:31.057Z,99.90
2023-02-27T09:37:59.599Z,99.90
2023-02-27T09:40:30.452Z,99.90
2023-02-27T09:43:02.634Z,99.90
2023-02-27T09:45:39.585Z,99.90
2023-02-27T09:48:14.615Z,99.90
2023-02-27T09:50:49.163Z,99.90
2023-02-27T09:53:31.677Z,99.90
2023-02-27T09:56:06.773Z,99.90
2023-02-27T09:58:45.866Z,99.90
2023-02-27T10:01:22.897Z,99.90
2023-02-27T10:04:29.165Z,99.90
2023-02-27T10:07:04.174Z,99.90
2023-02-27T10:09:48.582Z,99.90
2023-02-27T10:12:44.686Z,99.90
2023-02-27T10:15:21.812Z,99.90
2023-02-27T10:17:55.661Z,99.90
2023-02-27T10:20:27.820Z,99.90
2023-02-27T10:22:59.063Z,99.90
2023-02-27T10:25:31.664Z,99.90
2023-02-27T10:28:12.167Z,99.90
2023-02-27T10:30:40.457Z,99.90
2023-02-27T10:33:14.489Z,99.90
2023-02-27T10:35:46.233Z,99.90
2023-02-27T10:38:19.290Z,99.90
2023-02-27T10:40:49.065Z,99.90
2023-02-27T10:43:19.124Z,99.90
2023-02-27T10:45:50.362Z,99.90
2023-02-27T10:48:22.984Z,99.90
2023-02-27T10:50:52.299Z,99.90
2023-02-27T10:53:24.249Z,99.90
2023-02-27T10:56:03.287Z,99.90
2023-02-27T10:58:34.874Z,99.90
2023-02-27T11:01:08.567Z,99.90
2023-02-27T11:03:41.704Z,99.90
2023-02-27T11:06:14.185Z,99.90
2023-02-27T11:08:43.548Z,99.90
2023-02-27T11:11:13.104Z,99.70
2023-02-27T11:13:43.768Z,99.30
2023-02-27T11:16:15.839Z,98.70
2023-02-27T11:18:47.478Z,98.80
2023-02-27T11:21:22.715Z,98.10
2023-02-27T11:23:54.057Z,98.80
2023-02-27T11:26:25.940Z,98.50
2023-02-27T11:29:15.276Z,98.90
2023-02-27T11:31:57.864Z,99.00
2023-02-27T11:34:31.698Z,98.40
2023-02-27T11:37:03.627Z,98.30
2023-02-27T11:39:37.319Z,97.10
2023-02-27T11:42:25.865Z,96.90
2023-02-27T11:45:00.661Z,97.40
2023-02-27T11:47:34.502Z,97.00
2023-02-27T11:50:52.357Z,97.50
2023-02-27T11:53:55.112Z,97.80
2023-02-27T11:56:28.246Z,97.70
2023-02-27T11:59:03.209Z,96.80
2023-02-27T12:01:39.252Z,95.40
2023-02-27T12:04:14.875Z,95.60
2023-02-27T12:06:51.441Z,95.10
2023-02-27T12:09:33.188Z,93.90
2023-02-27T12:12:06.890Z,93.20
2023-02-27T12:14:45.919Z,93.40
2023-02-27T12:17:22.438Z,94.20
2023-02-27T12:20:08.480Z,93.60
2023-02-27T12:22:45.780Z,93.80
2023-02-27T12:25:20.048Z,94.40
2023-02-27T12:27:53.370Z,93.50
2023-02-27T12:30:26.055Z,93.00
2023-02-27T12:33:03.517Z,92.70
2023-02-27T12:35:34.184Z,92.30
2023-02-27T12:38:06.960Z,92.40
2023-02-27T12:40:44.453Z,93.10
2023-02-27T12:43:27.914Z,93.50
2023-02-27T12:46:24.414Z,93.80
2023-02-27T12:49:05.261Z,94.80
2023-02-27T12:51:45.339Z,94.60
2023-02-27T12:54:34.708Z,94.00
2023-02-27T12:57:21.923Z,94.70
2023-02-27T12:59:59.868Z,95.00
2023-02-27T13:02:45.981Z,95.20
2023-02-27T13:05:29.600Z,95.60
2023-02-27T13:08:06.962Z,94.70
2023-02-27T13:10:42.133Z,94.30
2023-02-27T13:13:19.072Z,94.10
2023-02-27T13:15:53.271Z,93.90
2023-02-27T13:18:33.492Z,94.20
2023-02-27T13:21:09.089Z,93.70
2023-02-27T13:23:48.983Z,93.40
2023-02-27T13:26:23.980Z,93.10
2023-02-27T13:28:53.816Z,91.30
2023-02-27T13:31:31.941Z,89.60
2023-02-27T13:34:17.318Z,84.20
2023-02-27T13:36:47.580Z,80.50
2023-02-27T13:39:39.305Z,77.10
2023-02-27T13:42:50.650Z,69.10
2023-02-27T13:45:51.590Z,64.70
2023-02-27T13:48:46.665Z,63.10
2023-02-27T13:51:57.492Z,64.00
2023-02-27T13:54:29.678Z,65.20
2023-02-27T13:57:22.541Z,64.30
2023-02-27T13:59:57.114Z,62.80
2023-02-27T14:02:57.788Z,62.30
2023-02-27T14:05:32.221Z,61.90
2023-02-27T14:08:08.864Z,62.20
2023-02-27T14:10:39.190Z,63.60
2023-02-27T14:13:57.736Z,63.90
2023-02-27T14:16:59.537Z,63.70
2023-02-27T14:19:49.805Z,66.50
2023-02-27T14:23:05.652Z,67.20
2023-02-27T14:25:38.393Z,68.00
2023-02-27T14:28:14.826Z,67.20
2023-02-27T14:30:52.623Z,66.00
2023-02-27T14:33:38.992Z,64.10
2023-02-27T14:36:11.398Z,61.80
2023-02-27T14:38:40.186Z,61.70
2023-02-27T14:41:18.324Z,60.30
2023-02-27T14:43:55.052Z,60.00
2023-02-27T14:46:29.640Z,61.10
2023-02-27T14:49:01.691Z,61.40
2023-02-27T14:51:32.926Z,61.40
2023-02-27T14:54:03.044Z,61.30
2023-02-27T14:56:32.448Z,62.40
2023-02-27T14:59:05.135Z,63.70
2023-02-27T15:01:37.777Z,64.10
2023-02-27T15:04:08.474Z,65.00
2023-02-27T15:06:42.727Z,66.70
2023-02-27T15:09:22.969Z,67.50
2023-02-27T15:12:02.994Z,67.30
2023-02-27T15:14:34.593Z,68.00
2023-02-27T15:17:04.329Z,68.40
2023-02-27T15:19:33.761Z,67.60
2023-02-27T15:22:05.362Z,68.60
2023-02-27T15:24:49.143Z,68.70
2023-02-27T15:27:20.890Z,68.40
2023-02-27T15:29:51.999Z,67.40
2023-02-27T15:32:29.057Z,67.60
2023-02-27T15:35:00.822Z,67.60
2023-02-27T15:37:34.764Z,68.00
2023-02-27T15:40:05.130Z,68.10
2023-02-27T15:42:37.785Z,68.10
2023-02-27T15:45:08.599Z,69.10
2023-02-27T15:47:37.406Z,69.50
2023-02-27T15:50:25.969Z,69.40
2023-02-27T15:52:59.719Z,70.00
2023-02-27T15:55:31.890Z,69.40
2023-02-27T15:58:03.526Z,69.10
2023-02-27T16:00:35.553Z,69.20
2023-02-27T16:03:07.450Z,68.80
2023-02-27T16:05:40.404Z,69.40
2023-02-27T16:08:18.458Z,69.80
2023-02-27T16:10:47.845Z,69.50
2023-02-27T16:13:34.932Z,69.40
2023-02-27T16:16:04.889Z,69.40
2023-02-27T16:18:35.860Z,70.10
2023-02-27T16:21:13.611Z,69.70
2023-02-27T16:23:42.931Z,70.10
2023-02-27T16:26:31.879Z,70.60
2023-02-27T16:29:03.573Z,71.50
2023-02-27T16:31:35.160Z,72.10
2023-02-27T16:34:14.983Z,72.60
2023-02-27T16:36:55.121Z,72.50
2023-02-27T16:39:23.757Z,71.90
2023-02-27T16:41:54.591Z,71.70
2023-02-27T16:44:24.244Z,72.40
2023-02-27T16:46:53.726Z,72.90
2023-02-27T16:49:26.293Z,74.60
2023-02-27T16:51:56.222Z,75.70
2023-02-27T16:54:28.601Z,77.60
2023-02-27T16:56:56.633Z,76.50
2023-02-27T16:59:30.589Z,77.30
2023-02-27T17:01:59.269Z,77.10
2023-02-27T17:04:29.571Z,76.90
2023-02-27T17:07:01.489Z,77.00
2023-02-27T17:09:30.297Z,77.00
2023-02-27T17:11:58.499Z,77.50
2023-02-27T17:14:27.453Z,78.20
2023-02-27T17:16:56.026Z,78.30
2023-02-27T17:19:24.097Z,78.10
2023-02-27T17:21:54.636Z,78.10
2023-02-27T17:24:26.444Z,78.60
2023-02-27T17:26:55.490Z,78.80
2023-02-27T17:29:24.824Z,79.00
2023-02-27T17:31:53.560Z,79.00
2023-02-27T17:34:21.677Z,79.50
2023-02-27T17:36:50.183Z,79.90
2023-02-27T17:39:20.621Z,80.00
2023-02-27T17:41:52.743Z,80.00
2023-02-27T17:44:20.775Z,80.40
2023-02-27T17:46:48.796Z,81.00
2023-02-27T17:49:18.003Z,81.60
2023-02-27T17:51:46.470Z,81.90
2023-02-27T17:54:14.973Z,82.90
2023-02-27T17:56:43.428Z,82.90
2023-02-27T17:59:12.825Z,83.20
2023-02-27T18:01:41.385Z,83.20
2023-02-27T18:04:11.257Z,83.10
2023-02-27T18:06:41.307Z,83.30
2023-02-27T18:09:09.328Z,83.80
2023-02-27T18:11:38.980Z,85.60
2023-02-27T18:14:09.297Z,86.00
2023-02-27T18:16:41.798Z,85.30
2023-02-27T18:19:10.227Z,84.60
2023-02-27T18:21:42.753Z,84.70
2023-02-27T18:24:10.817Z,84.70
2023-02-27T18:26:39.167Z,84.70
2023-02-27T18:29:10.676Z,85.20
2023-02-27T18:31:43.671Z,85.10
2023-02-27T18:34:14.367Z,85.50
2023-02-27T18:36:42.864Z,85.60
2023-02-27T18:39:12.650Z,85.80
2023-02-27T18:41:40.951Z,85.90
2023-02-27T18:44:10.884Z,85.70
2023-02-27T18:46:40.520Z,86.10
2023-02-27T18:49:10.668Z,86.50
2023-02-27T18:51:39.299Z,87.00
2023-02-27T18:54:07.337Z,87.00
2023-02-27T18:56:35.360Z,87.20
2023-02-27T18:59:05.183Z,87.50
2023-02-27T19:01:36.207Z,86.80
2023-02-27T19:04:10.795Z,88.30
2023-02-27T19:06:41.092Z,87.30
2023-02-27T19:09:13.910Z,87.30
2023-02-27T19:11:41.901Z,87.20
2023-02-27T19:14:14.125Z,87.20
2023-02-27T19:16:43.095Z,87.70
2023-02-27T19:19:12.770Z,87.40
2023-02-27T19:21:41.864Z,87.20
2023-02-27T19:24:13.118Z,87.60
2023-02-27T19:26:42.272Z,87.10
2023-02-27T19:29:12.943Z,87.50
2023-02-27T19:31:41.383Z,87.40
2023-02-27T19:34:09.885Z,87.30
2023-02-27T19:36:40.166Z,87.40
2023-02-27T19:39:11.502Z,87.10
2023-02-27T19:41:39.528Z,87.30
2023-02-27T19:44:08.450Z,87.10
2023-02-27T19:46:36.738Z,87.00
2023-02-27T19:49:06.266Z,86.50
2023-02-27T19:51:34.682Z,87.50
2023-02-27T19:54:04.274Z,87.70
2023-02-27T19:56:33.655Z,87.60
2023-02-27T19:59:02.096Z,87.70
2023-02-27T20:01:32.487Z,87.50
2023-02-27T20:04:02.261Z,87.50
2023-02-27T20:06:33.683Z,87.50
2023-02-27T20:09:02.383Z,87.50
2023-02-27T20:11:33.051Z,87.50
2023-02-27T20:14:02.452Z,87.60
2023-02-27T20:16:34.355Z,87.20
2023-02-27T20:19:03.616Z,87.70
2023-02-27T20:21:33.505Z,87.90
2023-02-27T20:24:02.232Z,88.10
2023-02-27T20:26:35.293Z,88.60
2023-02-27T20:29:06.063Z,88.60
2023-02-27T20:31:37.994Z,88.20
2023-02-27T20:34:07.725Z,88.30
2023-02-27T20:36:37.706Z,88.50
2023-02-27T20:39:06.772Z,88.70
2023-02-27T20:41:37.125Z,88.90
2023-02-27T20:44:08.046Z,88.80
2023-02-27T20:46:37.376Z,89.00
2023-02-27T20:49:06.917Z,89.00
2023-02-27T20:51:37.954Z,89.00
2023-02-27T20:54:08.604Z,89.50
2023-02-27T20:56:41.234Z,89.70
2023-02-27T20:59:12.997Z,89.90
2023-02-27T21:01:42.406Z,89.90
2023-02-27T21:04:11.839Z,89.90
2023-02-27T21:06:39.893Z,90.00
2023-02-27T21:09:08.349Z,90.20
2023-02-27T21:11:37.720Z,90.20
2023-02-27T21:14:09.054Z,90.20
2023-02-27T21:16:38.102Z,90.20
2023-02-27T21:19:07.371Z,90.30
2023-02-27T21:21:37.394Z,90.10
2023-02-27T21:24:06.560Z,90.30
2023-02-27T21:26:40.010Z,90.50
2023-02-27T21:29:10.679Z,90.90
2023-02-27T21:31:39.892Z,90.80
2023-02-27T21:34:10.138Z,90.80
2023-02-27T21:36:42.501Z,90.80
2023-02-27T21:39:13.762Z,90.70
2023-02-27T21:41:45.768Z,90.70
2023-02-27T21:44:16.688Z,91.00
2023-02-27T21:46:45.798Z,91.20
2023-02-27T21:49:17.702Z,91.30
2023-02-27T21:51:46.117Z,91.60
2023-02-27T21:54:19.111Z,91.50
2023-02-27T21:56:49.686Z,91.70
2023-02-27T21:59:19.711Z,91.80
2023-02-27T22:01:48.642Z,91.90
2023-02-27T22:04:17.638Z,91.90
2023-02-27T22:06:46.620Z,91.70
2023-02-27T22:09:14.681Z,91.80
2023-02-27T22:11:43.782Z,91.90
2023-02-27T22:14:14.032Z,91.60
2023-02-27T22:16:43.074Z,92.00
2023-02-27T22:19:13.750Z,91.90
2023-02-27T22:21:42.869Z,92.40
2023-02-27T22:24:11.451Z,92.50
2023-02-27T22:26:41.620Z,92.70
2023-02-27T22:29:09.886Z,92.20
2023-02-27T22:31:45.155Z,92.30
2023-02-27T22:34:17.953Z,92.30
2023-02-27T22:36:48.432Z,92.40
2023-02-27T22:39:17.606Z,92.50
2023-02-27T22:41:46.005Z,92.40
2023-02-27T22:44:16.369Z,92.50
2023-02-27T22:46:48.001Z,92.70
2023-02-27T22:49:18.241Z,92.80
2023-02-27T22:51:52.787Z,92.80
2023-02-27T22:54:23.499Z,92.60
2023-02-27T22:56:52.405Z,92.60
2023-02-27T22:59:21.256Z,92.60
2023-02-27T23:01:53.310Z,92.70
2023-02-27T23:04:22.165Z,92.80
2023-02-27T23:06:52.575Z,92.90
2023-02-27T23:09:24.033Z,92.90
2023-02-27T23:11:52.860Z,92.90
2023-02-27T23:14:22.006Z,92.80
2023-02-27T23:16:51.903Z,93.10
2023-02-27T23:19:22.752Z,93.30
2023-02-27T23:21:50.771Z,93.30
2023-02-27T23:24:20.348Z,93.20
2023-02-27T23:26:50.965Z,93.40
2023-02-27T23:29:19.495Z,93.30
2023-02-27T23:31:55.116Z,93.30
2023-02-27T23:34:26.516Z,93.40
2023-02-27T23:36:55.777Z,93.40
2023-02-27T23:39:29.721Z,93.50
2023-02-27T23:42:25.231Z,93.50
2023-02-27T23:45:05.531Z,93.50
2023-02-27T23:47:44.809Z,93.60
2023-02-27T23:50:14.349Z,93.70
2023-02-27T23:52:42.799Z,93.80
2023-02-27T23:55:12.807Z,93.90
2023-02-27T23:57:41.586Z,94.00
